sensor_id;sensor_type;location;lat;lon;timestamp;pressure;altitude;pressure_sealevel;temperature;humidity
6034;BME280;3045;43.226;27.858;2022-08-04T00:02:03;11533.94;;;20.68;100.00
6034;BME280;3045;43.226;27.858;2022-08-04T00:04:38;13818.38;;;20.77;100.00
6034;BME280;3045;43.226;27.858;2022-08-04T00:07:13;9900.97;;;20.49;100.00
6034;BME280;3045;43.226;27.858;2022-08-04T00:09:47;10228.94;;;20.60;100.00
6034;BME280;3045;43.226;27.858;2022-08-04T00:12:15;9576.00;;;20.52;100.00
6034;BME280;3045;43.226;27.858;2022-08-04T00:14:46;9897.94;;;20.35;100.00
6034;BME280;3045;43.226;27.858;2022-08-04T00:17:17;6644.28;;;20.36;100.00
6034;BME280;3045;43.226;27.858;2022-08-04T00:19:47;5668.81;;;20.36;100.00
6034;BME280;3045;43.226;27.858;2022-08-04T00:22:18;5344.97;;;20.45;100.00
6034;BME280;3045;43.226;27.858;2022-08-04T00:24:48;3395.50;;;20.53;100.00
6034;BME280;3045;43.226;27.858;2022-08-04T00:27:15;4045.81;;;20.55;100.00
6034;BME280;3045;43.226;27.858;2022-08-04T00:29:42;5020.34;;;20.49;100.00
6034;BME280;3045;43.226;27.858;2022-08-04T00:32:11;5671.63;;;20.56;100.00
6034;BME280;3045;43.226;27.858;2022-08-04T00:34:39;6320.25;;;20.43;100.00
6034;BME280;3045;43.226;27.858;2022-08-04T00:37:07;5671.84;;;20.57;100.00
6034;BME280;3045;43.226;27.858;2022-08-04T00:39:36;6647.47;;;20.56;100.00
6034;BME280;3045;43.226;27.858;2022-08-04T00:42:25;5997.34;;;20.59;100.00
6034;BME280;3045;43.226;27.858;2022-08-04T00:45:06;7622.88;;;20.51;100.00
6034;BME280;3045;43.226;27.858;2022-08-04T00:47:52;7298.19;;;20.56;100.00
6034;BME280;3045;43.226;27.858;2022-08-04T00:50:30;6647.31;;;20.55;100.00
6034;BME280;3045;43.226;27.858;2022-08-04T00:53:07;6974.34;;;20.65;100.00
6034;BME280;3045;43.226;27.858;2022-08-04T00:56:02;6323.50;;;20.64;100.00
6034;BME280;3045;43.226;27.858;2022-08-04T00:58:54;5999.31;;;20.72;100.00
6034;BME280;3045;43.226;27.858;2022-08-04T01:01:36;6324.44;;;20.70;100.00
6034;BME280;3045;43.226;27.858;2022-08-04T01:04:14;5999.94;;;20.76;100.00
6034;BME280;3045;43.226;27.858;2022-08-04T01:06:47;8278.31;;;20.76;100.00
6034;BME280;3045;43.226;27.858;2022-08-04T01:09:34;7951.91;;;20.71;100.00
6034;BME280;3045;43.226;27.858;2022-08-04T01:12:17;9251.97;;;20.60;100.00
6034;BME280;3045;43.226;27.858;2022-08-04T01:15:05;9579.69;;;20.70;100.00
6034;BME280;3045;43.226;27.858;2022-08-04T01:17:41;8601.38;;;20.63;100.00
6034;BME280;3045;43.226;27.858;2022-08-04T01:20:11;8927.16;;;20.64;100.00
6034;BME280;3045;43.226;27.858;2022-08-04T01:23:10;8925.88;;;20.57;100.00
6034;BME280;3045;43.226;27.858;2022-08-04T01:26:22;4044.16;;;20.41;100.00
6034;BME280;3045;43.226;27.858;2022-08-04T01:29:08;-503.72;;;20.20;100.00
6034;BME280;3045;43.226;27.858;2022-08-04T01:31:52;-2449.88;;;20.11;100.00
6034;BME280;3045;43.226;27.858;2022-08-04T01:34:21;-1801.44;;;20.11;100.00
6034;BME280;3045;43.226;27.858;2022-08-04T01:36:58;-1152.78;;;20.12;100.00
6034;BME280;3045;43.226;27.858;2022-08-04T01:39:32;-1477.41;;;20.02;100.00
6034;BME280;3045;43.226;27.858;2022-08-04T01:42:08;-2126.16;;;19.89;100.00
6034;BME280;3045;43.226;27.858;2022-08-04T01:44:40;-3422.34;;;20.04;100.00
6034;BME280;3045;43.226;27.858;2022-08-04T01:47:08;-4394.53;;;20.12;100.00
6034;BME280;3045;43.226;27.858;2022-08-04T01:49:36;-3746.44;;;20.15;100.00
6034;BME280;3045;43.226;27.858;2022-08-04T01:52:07;-3098.25;;;20.05;100.00
6034;BME280;3045;43.226;27.858;2022-08-04T01:54:37;-2125.69;;;20.11;100.00
6034;BME280;3045;43.226;27.858;2022-08-04T01:57:05;-3098.28;;;19.99;100.00
6034;BME280;3045;43.226;27.858;2022-08-04T01:59:33;-3422.34;;;20.03;100.00
6034;BME280;3045;43.226;27.858;2022-08-04T02:02:04;-4070.25;;;19.88;100.00
6034;BME280;3045;43.226;27.858;2022-08-04T02:04:34;-6659.84;;;19.74;100.00
6034;BME280;3045;43.226;27.858;2022-08-04T02:07:13;-7629.13;;;19.53;100.00
6034;BME280;3045;43.226;27.858;2022-08-04T02:09:50;-8921.91;;;19.47;100.00
6034;BME280;3045;43.226;27.858;2022-08-04T02:12:24;-8597.84;;;19.37;100.00
6034;BME280;3045;43.226;27.858;2022-08-04T02:14:56;-8274.59;;;19.37;100.00
6034;BME280;3045;43.226;27.858;2022-08-04T02:17:29;-8274.91;;;19.41;100.00
6034;BME280;3045;43.226;27.858;2022-08-04T02:20:05;-7628.22;;;19.40;100.00
6034;BME280;3045;43.226;27.858;2022-08-04T02:22:36;-6981.25;;;19.35;100.00
6034;BME280;3045;43.226;27.858;2022-08-04T02:25:06;-6981.63;;;19.41;100.00
6034;BME280;3045;43.226;27.858;2022-08-04T02:27:46;-6335.34;;;19.54;100.00
6034;BME280;3045;43.226;27.858;2022-08-04T02:30:17;-6335.13;;;19.49;100.00
6034;BME280;3045;43.226;27.858;2022-08-04T02:32:48;-6012.50;;;19.71;100.00
6034;BME280;3045;43.226;27.858;2022-08-04T02:35:25;-3746.22;;;19.65;100.00
6034;BME280;3045;43.226;27.858;2022-08-04T02:38:03;-4393.88;;;19.69;100.00
6034;BME280;3045;43.226;27.858;2022-08-04T02:40:32;-2450.59;;;19.67;100.00
6034;BME280;3045;43.226;27.858;2022-08-04T02:43:03;-2126.38;;;19.77;100.00
6034;BME280;3045;43.226;27.858;2022-08-04T02:45:31;-1478.19;;;19.78;100.00
6034;BME280;3045;43.226;27.858;2022-08-04T02:48:04;-829.50;;;19.87;100.00
6034;BME280;3045;43.226;27.858;2022-08-04T02:50:36;3062.00;;;19.71;100.00
6034;BME280;3045;43.226;27.858;2022-08-04T02:53:04;3386.38;;;19.70;100.00
6034;BME280;3045;43.226;27.858;2022-08-04T02:55:32;2737.72;;;19.74;100.00
6034;BME280;3045;43.226;27.858;2022-08-04T02:58:02;1439.81;;;19.73;100.00
6034;BME280;3045;43.226;27.858;2022-08-04T03:00:30;791.44;;;19.78;100.00
6034;BME280;3045;43.226;27.858;2022-08-04T03:03:07;2413.97;;;19.82;100.00
6034;BME280;3045;43.226;27.858;2022-08-04T03:05:50;1440.81;;;19.85;100.00
6034;BME280;3045;43.226;27.858;2022-08-04T03:11:48;2090.19;;;19.90;100.00
6034;BME280;3045;43.226;27.858;2022-08-04T03:17:45;5988.84;;;20.02;100.00
6034;BME280;3045;43.226;27.858;2022-08-04T03:23:57;7289.78;;;20.06;100.00
6034;BME280;3045;43.226;27.858;2022-08-04T03:32:49;11528.59;;;20.45;100.00
6034;BME280;3045;43.226;27.858;2022-08-04T03:35:39;22648.97;;;21.08;100.00
6034;BME280;3045;43.226;27.858;2022-08-04T03:38:37;48624.84;;;21.41;100.00
6034;BME280;3045;43.226;27.858;2022-08-04T03:41:29;73130.91;;;21.46;100.00
6034;BME280;3045;43.226;27.858;2022-08-04T03:44:27;81154.22;;;21.74;100.00
6034;BME280;3045;43.226;27.858;2022-08-04T03:47:19;95548.88;;;21.96;100.00
6034;BME280;3045;43.226;27.858;2022-08-04T03:50:21;131327.28;;;22.48;100.00
6034;BME280;3045;43.226;27.858;2022-08-04T03:56:13;151814.28;;;22.97;100.00
6034;BME280;3045;43.226;27.858;2022-08-04T03:58:54;151805.34;;;22.94;100.00
6034;BME280;3045;43.226;27.858;2022-08-04T04:01:39;151816.84;;;22.98;100.00
6034;BME280;3045;43.226;27.858;2022-08-04T04:04:27;151820.69;;;23.00;100.00
6034;BME280;3045;43.226;27.858;2022-08-04T04:10:33;151908.69;;;23.35;100.00
6034;BME280;3045;43.226;27.858;2022-08-04T04:16:21;152070.81;;;23.99;100.00
6034;BME280;3045;43.226;27.858;2022-08-04T04:22:04;152197.25;;;24.49;100.00
6034;BME280;3045;43.226;27.858;2022-08-04T04:24:48;152272.63;;;24.79;100.00
6034;BME280;3045;43.226;27.858;2022-08-04T04:27:31;152287.97;;;24.85;100.00
6034;BME280;3045;43.226;27.858;2022-08-04T04:30:05;152325.03;;;24.99;100.00
6034;BME280;3045;43.226;27.858;2022-08-04T04:35:32;152363.38;;;25.15;100.00
6034;BME280;3045;43.226;27.858;2022-08-04T04:41:18;152484.84;;;25.63;100.00
6034;BME280;3045;43.226;27.858;2022-08-04T04:44:06;152557.69;;;25.91;100.00
6034;BME280;3045;43.226;27.858;2022-08-04T04:46:42;152644.66;;;26.26;100.00
6034;BME280;3045;43.226;27.858;2022-08-04T04:49:21;152667.69;;;26.35;100.00
6034;BME280;3045;43.226;27.858;2022-08-04T04:51:59;152690.66;;;26.44;100.00
6034;BME280;3045;43.226;27.858;2022-08-04T04:54:33;152798.13;;;26.87;100.00
6034;BME280;3045;43.226;27.858;2022-08-04T04:57:09;152891.53;;;27.23;100.00
6034;BME280;3045;43.226;27.858;2022-08-04T04:59:41;152982.38;;;27.59;100.00
6034;BME280;3045;43.226;27.858;2022-08-04T05:02:42;153078.34;;;27.97;100.00
6034;BME280;3045;43.226;27.858;2022-08-04T05:05:28;153189.78;;;28.41;100.00
6034;BME280;3045;43.226;27.858;2022-08-04T05:10:54;153343.50;;;29.02;100.00
6034;BME280;3045;43.226;27.858;2022-08-04T05:13:36;153390.88;;;29.21;100.00
6034;BME280;3045;43.226;27.858;2022-08-04T05:16:09;153389.59;;;29.20;100.00
6034;BME280;3045;43.226;27.858;2022-08-04T05:18:41;153319.16;;;28.92;100.00
6034;BME280;3045;43.226;27.858;2022-08-04T05:21:21;153330.69;;;28.97;100.00
6034;BME280;3045;43.226;27.858;2022-08-04T05:23:56;153325.53;;;28.95;100.00
6034;BME280;3045;43.226;27.858;2022-08-04T05:26:30;153266.66;;;28.72;100.00
6034;BME280;3045;43.226;27.858;2022-08-04T05:29:01;153379.34;;;29.16;100.00
6034;BME280;3045;43.226;27.858;2022-08-04T05:31:35;153458.81;;;29.47;100.00
6034;BME280;3045;43.226;27.858;2022-08-04T05:34:07;153584.41;;;29.97;100.00
6034;BME280;3045;43.226;27.858;2022-08-04T05:36:39;153779.28;;;30.74;100.00
6034;BME280;3045;43.226;27.858;2022-08-04T05:39:10;153854.97;;;31.04;100.00
6034;BME280;3045;43.226;27.858;2022-08-04T05:41:39;153928.06;;;31.33;100.00
6034;BME280;3045;43.226;27.858;2022-08-04T05:44:08;153907.56;;;31.24;100.00
6034;BME280;3045;43.226;27.858;2022-08-04T05:46:36;153884.47;;;31.15;100.00
6034;BME280;3045;43.226;27.858;2022-08-04T05:49:03;153853.69;;;31.03;100.00
6034;BME280;3045;43.226;27.858;2022-08-04T05:51:31;153784.44;;;30.76;100.00
6034;BME280;3045;43.226;27.858;2022-08-04T05:54:01;153822.88;;;30.91;100.00
6034;BME280;3045;43.226;27.858;2022-08-04T05:56:29;153844.72;;;31.00;100.00
6034;BME280;3045;43.226;27.858;2022-08-04T05:59:00;153860.13;;;31.06;100.00
6034;BME280;3045;43.226;27.858;2022-08-04T06:01:29;153846.03;;;31.00;100.00
6034;BME280;3045;43.226;27.858;2022-08-04T06:03:59;153837.00;;;30.97;100.00
6034;BME280;3045;43.226;27.858;2022-08-04T06:06:29;153890.91;;;31.18;100.00
6034;BME280;3045;43.226;27.858;2022-08-04T06:08:56;153881.94;;;31.14;100.00
6034;BME280;3045;43.226;27.858;2022-08-04T06:11:26;153916.53;;;31.28;100.00
6034;BME280;3045;43.226;27.858;2022-08-04T06:13:56;153910.13;;;31.25;100.00
6034;BME280;3045;43.226;27.858;2022-08-04T06:16:28;153934.50;;;31.35;100.00
6034;BME280;3045;43.226;27.858;2022-08-04T06:19:00;154017.91;;;31.68;100.00
6034;BME280;3045;43.226;27.858;2022-08-04T06:21:31;154049.97;;;31.81;99.33
6034;BME280;3045;43.226;27.858;2022-08-04T06:24:00;154025.59;;;31.71;99.72
6034;BME280;3045;43.226;27.858;2022-08-04T06:26:32;154132.13;;;32.13;98.09
6034;BME280;3045;43.226;27.858;2022-08-04T06:29:00;154259.25;;;32.63;94.19
6034;BME280;3045;43.226;27.858;2022-08-04T06:31:30;154419.75;;;33.26;88.71
6034;BME280;3045;43.226;27.858;2022-08-04T06:34:12;154367.06;;;33.05;90.14
6034;BME280;3045;43.226;27.858;2022-08-04T06:36:40;154503.19;;;33.59;86.72
6034;BME280;3045;43.226;27.858;2022-08-04T06:39:09;154617.53;;;34.04;84.19
6034;BME280;3045;43.226;27.858;2022-08-04T06:41:38;154686.97;;;34.31;83.11
6034;BME280;3045;43.226;27.858;2022-08-04T06:44:08;154593.16;;;33.94;84.70
6034;BME280;3045;43.226;27.858;2022-08-04T06:46:37;154464.69;;;33.44;87.19
6034;BME280;3045;43.226;27.858;2022-08-04T06:49:09;154489.06;;;33.53;89.34
6034;BME280;3045;43.226;27.858;2022-08-04T06:51:37;154500.63;;;33.58;90.02
6034;BME280;3045;43.226;27.858;2022-08-04T06:54:05;154585.41;;;33.91;85.80
6034;BME280;3045;43.226;27.858;2022-08-04T06:56:33;154643.25;;;34.14;82.68
6034;BME280;3045;43.226;27.858;2022-08-04T06:59:03;154540.47;;;33.74;81.96
6034;BME280;3045;43.226;27.858;2022-08-04T07:01:30;154623.97;;;34.07;80.55
6034;BME280;3045;43.226;27.858;2022-08-04T07:04:01;154672.81;;;34.26;81.33
6034;BME280;3045;43.226;27.858;2022-08-04T07:06:29;154564.88;;;33.83;81.14
6034;BME280;3045;43.226;27.858;2022-08-04T07:08:56;154390.19;;;33.15;87.14
6034;BME280;3045;43.226;27.858;2022-08-04T07:11:27;154433.84;;;33.32;86.58
6034;BME280;3045;43.226;27.858;2022-08-04T07:13:55;154349.06;;;32.98;88.11
6034;BME280;3045;43.226;27.858;2022-08-04T07:16:24;154314.41;;;32.85;88.51
6034;BME280;3045;43.226;27.858;2022-08-04T07:18:51;154318.25;;;32.86;90.07
6034;BME280;3045;43.226;27.858;2022-08-04T07:21:20;154272.03;;;32.68;89.97
6034;BME280;3045;43.226;27.858;2022-08-04T07:23:48;154311.88;;;32.84;90.50
6034;BME280;3045;43.226;27.858;2022-08-04T07:26:15;154331.09;;;32.91;91.14
6034;BME280;3045;43.226;27.858;2022-08-04T07:28:44;154328.53;;;32.90;90.87
6034;BME280;3045;43.226;27.858;2022-08-04T07:31:15;154306.72;;;32.82;88.96
6034;BME280;3045;43.226;27.858;2022-08-04T07:33:44;154283.59;;;32.73;89.99
6034;BME280;3045;43.226;27.858;2022-08-04T07:36:15;154369.59;;;33.06;88.65
6034;BME280;3045;43.226;27.858;2022-08-04T07:38:42;154395.34;;;33.17;86.68
6034;BME280;3045;43.226;27.858;2022-08-04T07:41:10;154395.34;;;33.17;87.02
6034;BME280;3045;43.226;27.858;2022-08-04T07:43:39;154433.84;;;33.32;86.64
6034;BME280;3045;43.226;27.858;2022-08-04T07:46:06;154469.81;;;33.46;84.38
6034;BME280;3045;43.226;27.858;2022-08-04T07:48:35;154512.19;;;33.63;84.15
6034;BME280;3045;43.226;27.858;2022-08-04T07:51:04;154455.66;;;33.40;82.94
6034;BME280;3045;43.226;27.858;2022-08-04T07:53:33;154433.84;;;33.32;81.61
6034;BME280;3045;43.226;27.858;2022-08-04T07:56:01;154415.88;;;33.25;84.87
6034;BME280;3045;43.226;27.858;2022-08-04T07:58:28;154369.59;;;33.06;83.24
6034;BME280;3045;43.226;27.858;2022-08-04T08:00:56;154318.25;;;32.86;85.40
6034;BME280;3045;43.226;27.858;2022-08-04T08:03:23;154336.22;;;32.93;85.27
6034;BME280;3045;43.226;27.858;2022-08-04T08:05:51;154404.31;;;33.20;86.23
6034;BME280;3045;43.226;27.858;2022-08-04T08:08:19;154505.78;;;33.60;83.17
6034;BME280;3045;43.226;27.858;2022-08-04T08:10:47;154576.44;;;33.88;80.37
6034;BME280;3045;43.226;27.858;2022-08-04T08:13:14;154580.31;;;33.89;81.91
6034;BME280;3045;43.226;27.858;2022-08-04T08:15:44;154605.97;;;34.00;81.42
6034;BME280;3045;43.226;27.858;2022-08-04T08:18:11;154675.41;;;34.27;77.82
6034;BME280;3045;43.226;27.858;2022-08-04T08:20:39;154677.97;;;34.28;77.23
6034;BME280;3045;43.226;27.858;2022-08-04T08:23:09;154689.53;;;34.32;79.12
6034;BME280;3045;43.226;27.858;2022-08-04T08:25:39;154588.00;;;33.92;77.71
6034;BME280;3045;43.226;27.858;2022-08-04T08:28:06;154526.38;;;33.68;79.77
6034;BME280;3045;43.226;27.858;2022-08-04T08:30:33;154453.13;;;33.39;80.73
6034;BME280;3045;43.226;27.858;2022-08-04T08:33:03;154346.47;;;32.97;82.60
6034;BME280;3045;43.226;27.858;2022-08-04T08:35:37;154292.56;;;32.76;85.12
6034;BME280;3045;43.226;27.858;2022-08-04T08:38:09;154275.91;;;32.70;84.60
6034;BME280;3045;43.226;27.858;2022-08-04T08:40:45;154325.94;;;32.89;87.40
6034;BME280;3045;43.226;27.858;2022-08-04T08:43:39;154352.94;;;33.00;85.19
6034;BME280;3045;43.226;27.858;2022-08-04T08:46:23;154322.13;;;32.88;85.61
6034;BME280;3045;43.226;27.858;2022-08-04T08:51:54;154047.41;;;31.80;91.50
6034;BME280;3045;43.226;27.858;2022-08-04T08:54:37;154115.41;;;32.06;91.64
6034;BME280;3045;43.226;27.858;2022-08-04T08:57:32;154238.63;;;32.55;90.57
6034;BME280;3045;43.226;27.858;2022-08-04T09:00:08;154325.94;;;32.89;81.51
6034;BME280;3045;43.226;27.858;2022-08-04T09:03:06;154456.97;;;33.41;83.18
6034;BME280;3045;43.226;27.858;2022-08-04T09:05:46;154418.47;;;33.26;81.07
6034;BME280;3045;43.226;27.858;2022-08-04T09:08:54;154540.47;;;33.74;76.42
6034;BME280;3045;43.226;27.858;2022-08-04T09:11:33;154634.25;;;34.11;75.09
6034;BME280;3045;43.226;27.858;2022-08-04T09:14:07;154725.47;;;34.47;74.65
6034;BME280;3045;43.226;27.858;2022-08-04T09:16:39;154681.81;;;34.29;74.16
6034;BME280;3045;43.226;27.858;2022-08-04T09:19:13;154564.88;;;33.83;74.06
6034;BME280;3045;43.226;27.858;2022-08-04T09:21:48;154536.63;;;33.72;77.47
6034;BME280;3045;43.226;27.858;2022-08-04T09:24:19;154535.34;;;33.72;76.75
6034;BME280;3045;43.226;27.858;2022-08-04T09:26:52;154464.69;;;33.44;78.37
6034;BME280;3045;43.226;27.858;2022-08-04T09:29:33;154444.09;;;33.36;79.20
6034;BME280;3045;43.226;27.858;2022-08-04T09:32:07;154487.75;;;33.53;73.66
6034;BME280;3045;43.226;27.858;2022-08-04T09:34:42;154467.22;;;33.45;73.35
6034;BME280;3045;43.226;27.858;2022-08-04T09:37:21;154400.44;;;33.19;75.05
6034;BME280;3045;43.226;27.858;2022-08-04T09:40:00;154288.75;;;32.75;76.63
6034;BME280;3045;43.226;27.858;2022-08-04T09:42:35;154403.03;;;33.20;78.15
6034;BME280;3045;43.226;27.858;2022-08-04T09:45:14;154518.69;;;33.65;77.89
6034;BME280;3045;43.226;27.858;2022-08-04T09:47:48;154657.44;;;34.20;77.94
6034;BME280;3045;43.226;27.858;2022-08-04T09:50:27;154593.16;;;33.94;75.23
6034;BME280;3045;43.226;27.858;2022-08-04T09:53:04;154544.31;;;33.75;76.80
6034;BME280;3045;43.226;27.858;2022-08-04T09:55:51;154449.25;;;33.38;75.95
6034;BME280;3045;43.226;27.858;2022-08-04T09:58:37;154591.88;;;33.94;75.78
6034;BME280;3045;43.226;27.858;2022-08-04T10:01:08;154675.41;;;34.27;72.64
6034;BME280;3045;43.226;27.858;2022-08-04T10:03:40;154653.56;;;34.18;73.13
6034;BME280;3045;43.226;27.858;2022-08-04T10:06:26;154740.91;;;34.53;70.37
6034;BME280;3045;43.226;27.858;2022-08-04T10:09:11;154823.19;;;34.85;68.49
6034;BME280;3045;43.226;27.858;2022-08-04T10:11:59;154711.38;;;34.41;61.99
6034;BME280;3045;43.226;27.858;2022-08-04T10:14:37;154582.88;;;33.90;64.59
6034;BME280;3045;43.226;27.858;2022-08-04T10:20:07;154255.38;;;32.61;73.31
6034;BME280;3045;43.226;27.858;2022-08-04T10:22:37;154234.81;;;32.53;78.18
6034;BME280;3045;43.226;27.858;2022-08-04T10:25:16;154239.91;;;32.55;77.20
6034;BME280;3045;43.226;27.858;2022-08-04T10:27:51;154243.78;;;32.57;80.00
6034;BME280;3045;43.226;27.858;2022-08-04T10:30:20;154212.97;;;32.45;80.45
6034;BME280;3045;43.226;27.858;2022-08-04T10:32:59;154184.72;;;32.34;80.64
6034;BME280;3045;43.226;27.858;2022-08-04T10:35:32;154202.72;;;32.41;100.00
6034;BME280;3045;43.226;27.858;2022-08-04T10:38:08;153984.56;;;31.55;100.00
6034;BME280;3045;43.226;27.858;2022-08-04T10:40:40;154015.34;;;31.67;100.00
6034;BME280;3045;43.226;27.858;2022-08-04T10:43:21;153856.28;;;31.04;100.00
6034;BME280;3045;43.226;27.858;2022-08-04T10:45:57;153761.34;;;30.67;100.00
6034;BME280;3045;43.226;27.858;2022-08-04T10:48:33;153576.75;;;29.94;100.00
6034;BME280;3045;43.226;27.858;2022-08-04T10:51:14;153462.69;;;29.49;100.00
6034;BME280;3045;43.226;27.858;2022-08-04T10:53:46;153415.25;;;29.30;100.00
6034;BME280;3045;43.226;27.858;2022-08-04T10:56:22;153369.09;;;29.12;100.00
6034;BME280;3045;43.226;27.858;2022-08-04T10:58:59;153404.97;;;29.26;100.00
6034;BME280;3045;43.226;27.858;2022-08-04T11:01:31;153458.81;;;29.47;100.00
6034;BME280;3045;43.226;27.858;2022-08-04T11:04:04;153489.56;;;29.60;100.00
6034;BME280;3045;43.226;27.858;2022-08-04T11:06:35;153451.16;;;29.44;100.00
6034;BME280;3045;43.226;27.858;2022-08-04T11:09:04;153415.25;;;29.30;100.00
6034;BME280;3045;43.226;27.858;2022-08-04T11:11:36;153364.00;;;29.10;100.00
6034;BME280;3045;43.226;27.858;2022-08-04T11:14:07;153269.25;;;28.73;100.00
6034;BME280;3045;43.226;27.858;2022-08-04T11:16:40;153219.22;;;28.53;100.00
6034;BME280;3045;43.226;27.858;2022-08-04T11:19:28;153115.56;;;28.12;100.00
6034;BME280;3045;43.226;27.858;2022-08-04T11:21:59;153120.66;;;28.14;100.00
6034;BME280;3045;43.226;27.858;2022-08-04T11:24:35;153025.91;;;27.77;100.00
6034;BME280;3045;43.226;27.858;2022-08-04T11:27:10;153013.09;;;27.71;100.00
6034;BME280;3045;43.226;27.858;2022-08-04T11:29:45;152941.41;;;27.43;100.00
6034;BME280;3045;43.226;27.858;2022-08-04T11:32:19;152960.63;;;27.51;100.00
6034;BME280;3045;43.226;27.858;2022-08-04T11:34:58;152965.78;;;27.53;100.00
6034;BME280;3045;43.226;27.858;2022-08-04T11:37:30;152990.09;;;27.62;100.00
6034;BME280;3045;43.226;27.858;2022-08-04T11:40:06;153009.28;;;27.70;100.00
6034;BME280;3045;43.226;27.858;2022-08-04T11:42:37;153010.56;;;27.70;100.00
6034;BME280;3045;43.226;27.858;2022-08-04T11:45:11;153051.50;;;27.87;100.00
6034;BME280;3045;43.226;27.858;2022-08-04T11:47:46;153042.56;;;27.83;100.00
6034;BME280;3045;43.226;27.858;2022-08-04T11:50:20;152986.25;;;27.61;100.00
6034;BME280;3045;43.226;27.858;2022-08-04T11:52:49;152955.53;;;27.49;100.00
6034;BME280;3045;43.226;27.858;2022-08-04T11:55:19;153040.00;;;27.82;100.00
6034;BME280;3045;43.226;27.858;2022-08-04T11:57:47;153079.66;;;27.98;100.00
6034;BME280;3045;43.226;27.858;2022-08-04T12:00:16;153040.00;;;27.82;100.00
6034;BME280;3045;43.226;27.858;2022-08-04T12:02:58;152990.09;;;27.62;100.00
6034;BME280;3045;43.226;27.858;2022-08-04T12:05:30;153020.81;;;27.75;100.00
6034;BME280;3045;43.226;27.858;2022-08-04T12:08:05;153008.00;;;27.69;100.00
6034;BME280;3045;43.226;27.858;2022-08-04T12:10:46;153010.56;;;27.70;100.00
6034;BME280;3045;43.226;27.858;2022-08-04T12:13:25;152969.56;;;27.54;100.00
6034;BME280;3045;43.226;27.858;2022-08-04T12:15:59;152983.66;;;27.60;100.00
6034;BME280;3045;43.226;27.858;2022-08-04T12:18:33;152997.75;;;27.65;100.00
6034;BME280;3045;43.226;27.858;2022-08-04T12:21:07;153025.91;;;27.77;100.00
6034;BME280;3045;43.226;27.858;2022-08-04T12:23:39;153005.44;;;27.68;100.00
6034;BME280;3045;43.226;27.858;2022-08-04T12:26:19;153011.81;;;27.71;100.00
6034;BME280;3045;43.226;27.858;2022-08-04T12:28:50;152978.56;;;27.58;100.00
6034;BME280;3045;43.226;27.858;2022-08-04T12:31:26;152959.34;;;27.50;100.00
6034;BME280;3045;43.226;27.858;2022-08-04T12:33:58;152972.16;;;27.55;100.00
6034;BME280;3045;43.226;27.858;2022-08-04T12:36:32;153034.84;;;27.80;100.00
6034;BME280;3045;43.226;27.858;2022-08-04T12:39:05;153036.13;;;27.81;100.00
6034;BME280;3045;43.226;27.858;2022-08-04T12:41:38;152997.75;;;27.65;100.00
6034;BME280;3045;43.226;27.858;2022-08-04T12:44:09;153005.44;;;27.68;100.00
6034;BME280;3045;43.226;27.858;2022-08-04T12:46:38;152943.97;;;27.44;100.00
6034;BME280;3045;43.226;27.858;2022-08-04T12:49:06;152881.28;;;27.19;100.00
6034;BME280;3045;43.226;27.858;2022-08-04T12:51:39;152897.91;;;27.26;100.00
6034;BME280;3045;43.226;27.858;2022-08-04T12:54:07;152923.50;;;27.36;100.00
6034;BME280;3045;43.226;27.858;2022-08-04T12:56:35;152965.78;;;27.53;100.00
6034;BME280;3045;43.226;27.858;2022-08-04T12:59:05;152960.63;;;27.51;100.00
6034;BME280;3045;43.226;27.858;2022-08-04T13:01:33;152959.34;;;27.50;100.00
6034;BME280;3045;43.226;27.858;2022-08-04T13:04:09;152917.06;;;27.34;100.00
6034;BME280;3045;43.226;27.858;2022-08-04T13:06:40;152912.00;;;27.32;100.00
6034;BME280;3045;43.226;27.858;2022-08-04T13:09:14;152923.50;;;27.36;100.00
6034;BME280;3045;43.226;27.858;2022-08-04T13:11:49;152926.03;;;27.37;100.00
6034;BME280;3045;43.226;27.858;2022-08-04T13:14:30;152918.38;;;27.34;100.00
6034;BME280;3045;43.226;27.858;2022-08-04T13:16:59;152917.06;;;27.34;100.00
6034;BME280;3045;43.226;27.858;2022-08-04T13:19:27;152892.81;;;27.24;100.00
6034;BME280;3045;43.226;27.858;2022-08-04T13:21:57;152923.50;;;27.36;100.00
6034;BME280;3045;43.226;27.858;2022-08-04T13:24:25;152935.03;;;27.41;100.00
6034;BME280;3045;43.226;27.858;2022-08-04T13:26:56;152924.78;;;27.37;100.00
6034;BME280;3045;43.226;27.858;2022-08-04T13:29:29;152896.63;;;27.25;100.00
6034;BME280;3045;43.226;27.858;2022-08-04T13:31:58;152933.75;;;27.40;100.00
6034;BME280;3045;43.226;27.858;2022-08-04T13:34:26;152936.31;;;27.41;100.00
6034;BME280;3045;43.226;27.858;2022-08-04T13:36:57;152931.16;;;27.39;100.00
6034;BME280;3045;43.226;27.858;2022-08-04T13:39:25;152913.28;;;27.32;100.00
6034;BME280;3045;43.226;27.858;2022-08-04T13:41:54;152919.66;;;27.35;100.00
6034;BME280;3045;43.226;27.858;2022-08-04T13:44:26;152937.53;;;27.42;100.00
6034;BME280;3045;43.226;27.858;2022-08-04T13:46:56;152961.91;;;27.51;100.00
6034;BME280;3045;43.226;27.858;2022-08-04T13:49:27;152928.59;;;27.38;100.00
6034;BME280;3045;43.226;27.858;2022-08-04T13:51:58;152885.09;;;27.21;100.00
6034;BME280;3045;43.226;27.858;2022-08-04T13:54:34;152929.88;;;27.39;100.00
6034;BME280;3045;43.226;27.858;2022-08-04T13:57:06;152919.66;;;27.35;100.00
6034;BME280;3045;43.226;27.858;2022-08-04T13:59:36;152890.25;;;27.23;100.00
6034;BME280;3045;43.226;27.858;2022-08-04T14:02:07;152892.81;;;27.24;100.00
6034;BME280;3045;43.226;27.858;2022-08-04T14:04:40;152882.56;;;27.20;100.00
6034;BME280;3045;43.226;27.858;2022-08-04T14:07:13;152880.00;;;27.19;100.00
6034;BME280;3045;43.226;27.858;2022-08-04T14:09:40;152900.47;;;27.27;100.00
6034;BME280;3045;43.226;27.858;2022-08-04T14:12:09;152928.59;;;27.38;100.00
6034;BME280;3045;43.226;27.858;2022-08-04T14:14:45;152922.22;;;27.36;100.00
6034;BME280;3045;43.226;27.858;2022-08-04T14:17:14;152890.25;;;27.23;100.00
6034;BME280;3045;43.226;27.858;2022-08-04T14:19:51;152900.47;;;27.27;100.00